createdAt,value
2022-08-19T00:01:40.755Z,6.93
2022-08-19T00:04:10.551Z,5.60
2022-08-19T00:06:40.170Z,5.95
2022-08-19T00:09:09.982Z,6.35
2022-08-19T00:11:40.402Z,6.25
2022-08-19T00:14:10.596Z,6.93
2022-08-19T00:16:39.906Z,6.70
2022-08-19T00:19:07.898Z,9.15
2022-08-19T00:21:39.401Z,7.63
2022-08-19T00:24:09.001Z,28.80
2022-08-19T00:26:37.304Z,30.02
2022-08-19T00:29:08.393Z,32.33
2022-08-19T00:31:36.878Z,41.53
2022-08-19T00:34:05.124Z,37.92
2022-08-19T00:36:33.535Z,45.90
2022-08-19T00:39:01.911Z,46.60
2022-08-19T00:41:30.763Z,31.95
2022-08-19T00:44:01.736Z,34.88
2022-08-19T00:46:31.662Z,29.63
2022-08-19T00:48:59.770Z,32.03
2022-08-19T00:51:29.530Z,35.13
2022-08-19T00:53:59.520Z,39.58
2022-08-19T00:56:28.566Z,36.53
2022-08-19T00:58:58.588Z,42.45
2022-08-19T01:01:26.995Z,46.45
2022-08-19T01:03:58.058Z,44.30
2022-08-19T01:06:27.359Z,50.38
2022-08-19T01:08:56.332Z,50.88
2022-08-19T01:11:24.459Z,50.95
2022-08-19T01:13:54.137Z,48.65
2022-08-19T01:16:26.157Z,42.80
2022-08-19T01:18:54.040Z,42.85
2022-08-19T01:21:28.678Z,43.40
2022-08-19T01:23:57.914Z,33.97
2022-08-19T01:26:27.605Z,32.63
2022-08-19T01:28:59.688Z,29.45
2022-08-19T01:31:32.479Z,28.38
2022-08-19T01:34:02.741Z,28.88
2022-08-19T01:36:33.099Z,33.28
2022-08-19T01:39:05.100Z,29.95
2022-08-19T01:41:32.910Z,30.83
2022-08-19T01:44:10.057Z,30.90
2022-08-19T01:46:46.197Z,34.03
2022-08-19T01:49:14.177Z,32.30
2022-08-19T01:51:41.950Z,30.38
2022-08-19T01:54:12.346Z,31.80
2022-08-19T01:56:41.554Z,39.42
2022-08-19T01:59:13.967Z,33.05
2022-08-19T02:01:42.422Z,28.70
2022-08-19T02:04:10.629Z,28.88
2022-08-19T02:06:39.279Z,29.77
2022-08-19T02:09:08.910Z,24.73
2022-08-19T02:11:39.140Z,29.23
2022-08-19T02:14:09.347Z,25.48
2022-08-19T02:16:39.327Z,28.67
2022-08-19T02:19:07.306Z,29.63
2022-08-19T02:21:35.302Z,29.85
2022-08-19T02:24:03.445Z,32.35
2022-08-19T02:26:31.404Z,27.65
2022-08-19T02:29:01.223Z,28.02
2022-08-19T02:31:30.151Z,30.15
2022-08-19T02:33:58.683Z,30.95
2022-08-19T02:36:28.517Z,28.00
2022-08-19T02:38:55.985Z,30.20
2022-08-19T02:41:27.185Z,25.90
2022-08-19T02:44:29.967Z,32.20
2022-08-19T02:46:47.193Z,29.25
2022-08-19T02:49:17.663Z,28.92
2022-08-19T02:51:47.370Z,28.95
2022-08-19T02:54:16.586Z,28.73
2022-08-19T02:56:46.102Z,28.77
2022-08-19T02:59:13.911Z,26.63
2022-08-19T03:01:44.630Z,29.05
2022-08-19T03:04:14.458Z,29.38
2022-08-19T03:06:44.059Z,26.70
2022-08-19T03:09:12.528Z,29.23
2022-08-19T03:11:40.933Z,29.98
2022-08-19T03:14:11.305Z,29.98
2022-08-19T03:16:45.728Z,29.05
2022-08-19T03:19:13.755Z,25.40
2022-08-19T03:21:41.781Z,26.10
2022-08-19T03:24:11.101Z,24.02
2022-08-19T03:26:41.683Z,27.58
2022-08-19T03:29:12.005Z,28.67
2022-08-19T03:31:52.558Z,26.52
2022-08-19T03:34:27.026Z,30.30
2022-08-19T03:36:56.272Z,27.65
2022-08-19T03:39:25.275Z,24.58
2022-08-19T03:42:33.167Z,31.58
2022-08-19T03:44:46.635Z,26.63
2022-08-19T03:47:17.269Z,28.45
2022-08-19T03:49:47.311Z,26.00
2022-08-19T03:52:15.324Z,29.88
2022-08-19T03:54:43.566Z,29.17
2022-08-19T03:57:11.375Z,26.33
2022-08-19T03:59:39.754Z,25.05
2022-08-19T04:02:10.894Z,28.80
2022-08-19T04:04:39.517Z,26.35
2022-08-19T04:07:09.596Z,25.65
2022-08-19T04:09:37.908Z,28.02
2022-08-19T04:12:07.574Z,29.40
2022-08-19T04:14:36.721Z,29.25
2022-08-19T04:17:06.713Z,27.90
2022-08-19T04:19:36.202Z,29.55
2022-08-19T04:22:05.540Z,27.83
2022-08-19T04:24:35.722Z,30.58
2022-08-19T04:27:03.807Z,34.28
2022-08-19T04:29:31.980Z,31.35
2022-08-19T04:32:09.344Z,30.75
2022-08-19T04:35:01.550Z,28.75
2022-08-19T04:37:29.532Z,27.17
2022-08-19T04:40:24.093Z,32.95
2022-08-19T04:42:52.094Z,28.33
2022-08-19T04:45:20.043Z,28.27
2022-08-19T04:47:58.292Z,32.65
2022-08-19T04:50:27.555Z,28.48
2022-08-19T04:52:57.422Z,28.70
2022-08-19T04:55:27.488Z,26.33
2022-08-19T04:57:55.496Z,32.00
2022-08-19T05:00:23.874Z,35.83
2022-08-19T05:02:51.770Z,29.25
2022-08-19T05:05:20.780Z,29.63
2022-08-19T05:07:48.950Z,31.25
2022-08-19T05:10:16.812Z,31.63
2022-08-19T05:12:46.209Z,31.92
2022-08-19T05:15:14.198Z,28.40
2022-08-19T05:18:03.439Z,28.52
2022-08-19T05:20:48.653Z,30.77
2022-08-19T05:23:21.970Z,27.13
2022-08-19T05:25:51.343Z,28.65
2022-08-19T05:28:21.517Z,30.08
2022-08-19T05:30:51.694Z,31.45
2022-08-19T05:33:19.555Z,27.38
2022-08-19T05:35:49.549Z,26.52
2022-08-19T05:38:18.249Z,30.90
2022-08-19T05:40:47.607Z,28.13
2022-08-19T05:43:16.814Z,27.33
2022-08-19T05:45:46.529Z,29.67
2022-08-19T05:48:15.056Z,26.15
2022-08-19T05:50:46.443Z,26.08
2022-08-19T05:53:17.344Z,25.33
2022-08-19T05:55:45.247Z,21.98
2022-08-19T05:58:13.357Z,24.17
2022-08-19T06:00:41.957Z,23.60
2022-08-19T06:03:12.728Z,20.70
2022-08-19T06:05:51.811Z,21.67
2022-08-19T06:08:33.920Z,19.42
2022-08-19T06:11:22.831Z,18.98
2022-08-19T06:13:59.718Z,19.10
2022-08-19T06:16:36.771Z,17.00
2022-08-19T06:19:11.819Z,14.32
2022-08-19T06:21:45.444Z,16.67
2022-08-19T06:24:18.117Z,18.25
2022-08-19T06:26:59.217Z,12.90
2022-08-19T06:29:34.764Z,14.65
2022-08-19T06:32:09.008Z,22.23
2022-08-19T06:34:43.955Z,12.05
2022-08-19T06:37:14.407Z,13.00
2022-08-19T06:39:44.789Z,15.05
2022-08-19T06:42:17.848Z,13.57
2022-08-19T06:44:49.091Z,16.10
2022-08-19T06:47:25.162Z,15.00
2022-08-19T06:50:03.421Z,12.02
2022-08-19T06:52:34.385Z,9.70
2022-08-19T06:55:06.314Z,11.20
2022-08-19T06:57:35.464Z,11.45
2022-08-19T07:00:03.779Z,13.30
2022-08-19T07:02:33.831Z,12.20
2022-08-19T07:05:08.441Z,11.82
2022-08-19T07:07:45.159Z,12.60
2022-08-19T07:10:23.763Z,14.20
2022-08-19T07:12:59.951Z,16.77
2022-08-19T07:15:35.969Z,14.48
2022-08-19T07:29:24.108Z,11.68
2022-08-19T07:31:57.202Z,11.20
2022-08-19T07:34:26.244Z,12.20
2022-08-19T07:36:54.969Z,14.75
2022-08-19T07:39:24.945Z,14.00
2022-08-19T07:41:53.436Z,14.50
2022-08-19T07:44:22.820Z,11.25
2022-08-19T07:46:53.369Z,11.05
2022-08-19T07:49:22.875Z,18.92
2022-08-19T07:51:53.260Z,11.80
2022-08-19T07:54:22.767Z,12.55
2022-08-19T07:56:52.516Z,8.85
2022-08-19T07:59:22.554Z,13.07
2022-08-19T08:01:51.166Z,10.30
2022-08-19T08:04:36.920Z,10.93
2022-08-19T08:07:22.363Z,12.65
2022-08-19T08:09:51.778Z,11.38
2022-08-19T08:12:34.187Z,10.40
2022-08-19T08:15:12.547Z,13.25
2022-08-19T08:17:49.176Z,9.38
2022-08-19T08:20:20.373Z,8.10
2022-08-19T08:23:06.688Z,9.38
2022-08-19T08:25:36.367Z,6.07
2022-08-19T08:28:05.408Z,7.85
2022-08-19T08:30:36.826Z,8.07
2022-08-19T08:33:05.491Z,7.85
2022-08-19T08:35:34.433Z,9.00
2022-08-19T08:38:03.578Z,10.38
2022-08-19T08:40:37.193Z,10.05
2022-08-19T08:43:12.948Z,12.35
2022-08-19T08:45:53.768Z,7.45
2022-08-19T08:48:26.254Z,6.38
2022-08-19T08:50:56.892Z,6.88
2022-08-19T08:53:29.168Z,6.30
2022-08-19T08:55:57.803Z,7.93
2022-08-19T08:58:31.883Z,6.00
2022-08-19T09:01:01.056Z,5.30
2022-08-19T09:03:31.611Z,9.00
2022-08-19T09:06:03.692Z,8.73
2022-08-19T09:08:47.476Z,9.25
2022-08-19T09:11:42.675Z,8.38
2022-08-19T09:14:40.661Z,6.85
2022-08-19T09:17:08.848Z,8.02
2022-08-19T09:19:37.618Z,5.85
2022-08-19T09:22:06.230Z,8.35
2022-08-19T09:24:34.194Z,6.78
2022-08-19T09:27:07.952Z,6.40
2022-08-19T09:29:47.026Z,11.27
2022-08-19T09:32:26.421Z,8.95
2022-08-19T09:34:55.882Z,7.05
2022-08-19T09:37:24.134Z,8.25
2022-08-19T09:39:53.724Z,8.88
2022-08-19T09:42:30.328Z,8.50
2022-08-19T09:44:59.629Z,6.47
2022-08-19T09:47:29.737Z,4.93
2022-08-19T09:49:59.685Z,9.55
2022-08-19T09:52:32.615Z,8.57
2022-08-19T09:55:01.682Z,11.02
2022-08-19T09:57:35.354Z,7.60
2022-08-19T10:00:03.837Z,7.43
2022-08-19T10:02:33.149Z,5.88
2022-08-19T10:05:26.601Z,7.68
2022-08-19T10:07:56.867Z,8.15
2022-08-19T10:10:25.367Z,4.82
2022-08-19T10:12:56.117Z,6.32
2022-08-19T10:15:28.975Z,5.97
2022-08-19T10:18:00.502Z,5.72
2022-08-19T10:20:31.468Z,5.32
2022-08-19T10:23:03.150Z,7.10
2022-08-19T10:25:36.721Z,5.47
2022-08-19T10:28:10.578Z,5.35
2022-08-19T10:30:39.022Z,4.82
2022-08-19T10:33:11.328Z,7.88
2022-08-19T10:35:42.565Z,7.95
2022-08-19T10:40:59.979Z,6.18
2022-08-19T10:43:27.860Z,6.18
2022-08-19T10:45:58.298Z,6.38
2022-08-19T10:48:31.628Z,8.90
2022-08-19T10:51:22.757Z,8.57
2022-08-19T10:53:51.704Z,7.45
2022-08-19T10:56:38.398Z,9.40
2022-08-19T10:59:06.958Z,8.15
2022-08-19T11:01:36.253Z,7.22
2022-08-19T11:04:10.121Z,10.93
2022-08-19T11:06:39.382Z,12.75
2022-08-19T11:09:07.688Z,11.82
2022-08-19T11:11:41.737Z,8.35
2022-08-19T11:14:10.396Z,8.52
2022-08-19T11:16:40.102Z,8.43
2022-08-19T11:19:10.934Z,10.13
2022-08-19T11:21:41.397Z,11.02
2022-08-19T11:24:11.841Z,8.60
2022-08-19T11:26:41.177Z,9.45
2022-08-19T11:29:13.669Z,10.40
2022-08-19T11:31:43.317Z,8.85
2022-08-19T11:34:15.750Z,8.55
2022-08-19T11:36:46.034Z,8.70
2022-08-19T11:39:16.281Z,16.30
2022-08-19T11:41:44.166Z,9.82
2022-08-19T11:44:14.961Z,10.32
2022-08-19T11:46:46.441Z,9.77
2022-08-19T11:49:16.425Z,9.52
2022-08-19T11:51:44.862Z,8.43
2022-08-19T11:54:14.422Z,7.18
2022-08-19T11:56:43.218Z,7.18
2022-08-19T11:59:14.807Z,10.75
2022-08-19T12:01:43.697Z,6.68
2022-08-19T12:04:13.184Z,7.05
2022-08-19T12:06:43.071Z,11.60
2022-08-19T12:09:12.303Z,6.82
2022-08-19T12:11:41.483Z,8.07
2022-08-19T12:14:14.467Z,10.70
2022-08-19T12:16:48.621Z,7.55
2022-08-19T12:19:22.297Z,10.38
2022-08-19T12:21:54.235Z,6.20
2022-08-19T12:24:24.323Z,5.97
2022-08-19T12:26:53.982Z,5.32
2022-08-19T12:29:23.848Z,7.75
2022-08-19T12:31:52.188Z,3.70
2022-08-19T12:34:21.001Z,3.67
2022-08-19T12:36:50.330Z,4.32
2022-08-19T12:39:19.765Z,6.25
2022-08-19T12:41:51.283Z,47.78
2022-08-19T12:44:29.413Z,13.23
2022-08-19T12:47:00.914Z,7.30
2022-08-19T12:49:53.434Z,19.60
2022-08-19T12:52:22.887Z,6.68
2022-08-19T12:54:54.498Z,4.50
2022-08-19T12:57:32.137Z,4.25
2022-08-19T13:00:09.536Z,5.85
2022-08-19T13:02:38.450Z,2.58
2022-08-19T13:05:09.279Z,4.38
2022-08-19T13:07:38.469Z,8.82
2022-08-19T13:10:09.264Z,3.90
2022-08-19T13:12:37.648Z,2.15
2022-08-19T13:15:10.864Z,6.45
2022-08-19T13:17:39.661Z,3.83
2022-08-19T13:20:09.991Z,1.88
2022-08-19T13:22:38.107Z,2.38
2022-08-19T13:25:11.989Z,1.95
2022-08-19T13:27:41.125Z,6.10
2022-08-19T13:30:29.707Z,2.17
2022-08-19T13:33:13.018Z,2.53
2022-08-19T13:35:47.559Z,1.85
2022-08-19T13:38:16.514Z,5.47
2022-08-19T13:40:46.069Z,3.50
2022-08-19T13:43:22.754Z,1.40
2022-08-19T13:45:53.590Z,1.73
2022-08-19T13:48:21.896Z,2.88
2022-08-19T13:50:50.143Z,3.28
2022-08-19T13:53:19.047Z,2.25
2022-08-19T13:55:48.568Z,1.38
2022-08-19T13:58:17.986Z,2.40
2022-08-19T14:00:50.889Z,2.75
2022-08-19T14:03:18.757Z,4.18
2022-08-19T14:05:46.975Z,1.67
2022-08-19T14:08:15.181Z,2.92
2022-08-19T14:10:45.109Z,1.95
2022-08-19T14:13:17.543Z,3.13
2022-08-19T14:15:46.196Z,4.47
2022-08-19T14:18:14.018Z,3.55
2022-08-19T14:20:42.767Z,4.65
2022-08-19T14:23:10.598Z,4.57
2022-08-19T14:25:38.651Z,5.88
2022-08-19T14:28:07.908Z,7.22
2022-08-19T14:30:39.164Z,7.47
2022-08-19T14:33:09.574Z,8.10
2022-08-19T14:35:37.696Z,4.80
2022-08-19T14:38:09.160Z,1.67
2022-08-19T14:40:38.446Z,1.73
2022-08-19T14:43:12.683Z,2.63
2022-08-19T14:45:48.587Z,0.98
2022-08-19T14:48:19.459Z,1.50
2022-08-19T14:50:49.134Z,1.90
2022-08-19T14:53:19.647Z,1.35
2022-08-19T14:55:50.991Z,1.55
2022-08-19T14:58:28.846Z,0.80
2022-08-19T15:01:01.148Z,2.17
2022-08-19T15:03:29.457Z,2.35
2022-08-19T15:05:58.905Z,1.77
2022-08-19T15:08:34.923Z,2.47
2022-08-19T15:11:06.773Z,2.53
2022-08-19T15:13:39.700Z,0.68
2022-08-19T15:16:18.172Z,1.52
2022-08-19T15:18:48.636Z,1.10
2022-08-19T15:21:26.510Z,1.90
2022-08-19T15:23:59.666Z,2.33
2022-08-19T15:26:34.101Z,4.53
2022-08-19T15:29:04.417Z,2.88
2022-08-19T15:31:38.249Z,1.17
2022-08-19T15:34:08.290Z,2.33
2022-08-19T15:36:37.077Z,4.93
2022-08-19T15:39:06.518Z,1.92
2022-08-19T15:41:36.970Z,1.67
2022-08-19T15:44:09.012Z,2.55
2022-08-19T15:46:40.233Z,1.15
2022-08-19T15:49:09.783Z,1.63
2022-08-19T15:51:40.772Z,2.95
2022-08-19T15:54:13.334Z,1.67
2022-08-19T15:57:07.693Z,3.17
2022-08-19T15:59:56.073Z,2.40
2022-08-19T16:02:47.816Z,1.92
2022-08-19T16:05:38.590Z,3.33
2022-08-19T16:08:10.791Z,1.65
2022-08-19T16:10:39.918Z,1.30
2022-08-19T16:13:08.460Z,2.85
2022-08-19T16:15:43.161Z,2.42
2022-08-19T16:18:12.849Z,1.83
2022-08-19T16:20:41.038Z,1.75
2022-08-19T16:23:12.167Z,3.30
2022-08-19T16:25:40.006Z,1.83
2022-08-19T16:28:10.276Z,2.72
2022-08-19T16:30:41.193Z,1.73
2022-08-19T16:33:10.215Z,1.45
2022-08-19T16:35:39.506Z,3.33
2022-08-19T16:38:08.638Z,2.17
2022-08-19T16:40:37.242Z,1.60
2022-08-19T16:43:05.265Z,3.92
2022-08-19T16:45:33.148Z,7.88
2022-08-19T16:48:00.998Z,6.63
2022-08-19T16:50:48.133Z,7.22
2022-08-19T16:53:21.466Z,5.20
2022-08-19T16:55:50.754Z,4.53
2022-08-19T16:58:19.342Z,5.45
2022-08-19T17:00:48.602Z,8.60
2022-08-19T17:03:17.437Z,9.35
2022-08-19T17:05:47.372Z,10.13
2022-08-19T17:08:16.861Z,6.72
2022-08-19T17:11:16.514Z,4.43
2022-08-19T17:13:38.374Z,4.75
2022-08-19T17:16:11.012Z,10.07
2022-08-19T17:18:42.411Z,7.57
2022-08-19T17:21:14.387Z,7.15
2022-08-19T17:23:44.926Z,2.53
2022-08-19T17:26:19.367Z,5.13
2022-08-19T17:28:50.039Z,4.05
2022-08-19T17:31:25.184Z,5.75
2022-08-19T17:33:54.980Z,8.05
2022-08-19T17:36:26.178Z,7.97
2022-08-19T17:38:56.137Z,10.45
2022-08-19T17:41:27.254Z,8.13
2022-08-19T17:43:55.307Z,12.90
2022-08-19T17:46:25.536Z,12.30
2022-08-19T17:48:58.569Z,8.68
2022-08-19T17:51:41.993Z,11.02
2022-08-19T17:54:12.296Z,5.80
2022-08-19T17:56:41.758Z,4.57
2022-08-19T17:59:14.103Z,5.95
2022-08-19T18:01:53.387Z,6.43
2022-08-19T18:04:24.001Z,6.18
2022-08-19T18:06:54.348Z,5.55
2022-08-19T18:09:25.030Z,7.00
2022-08-19T18:11:57.273Z,5.95
2022-08-19T18:14:32.805Z,3.63
2022-08-19T18:17:02.076Z,10.73
2022-08-19T18:19:41.400Z,4.40
2022-08-19T18:22:12.936Z,5.30
2022-08-19T18:24:41.603Z,6.07
2022-08-19T18:27:10.947Z,4.22
2022-08-19T18:29:40.425Z,3.33
2022-08-19T18:32:13.285Z,5.22
2022-08-19T18:34:42.059Z,4.90
2022-08-19T18:37:09.922Z,5.20
2022-08-19T18:39:55.168Z,4.40
2022-08-19T18:42:42.183Z,5.03
2022-08-19T18:45:29.274Z,5.00
2022-08-19T18:48:25.820Z,3.38
2022-08-19T18:50:56.895Z,3.00
2022-08-19T18:53:25.334Z,3.08
2022-08-19T18:55:55.398Z,2.63
2022-08-19T18:58:26.593Z,2.03
2022-08-19T19:00:56.818Z,4.85
2022-08-19T19:03:25.759Z,5.93
2022-08-19T19:05:54.846Z,3.33
2022-08-19T19:08:26.748Z,3.55
2022-08-19T19:10:55.977Z,2.50
2022-08-19T19:13:25.256Z,2.15
2022-08-19T19:15:54.432Z,4.07
2022-08-19T19:18:22.469Z,2.85
2022-08-19T19:20:50.231Z,3.83
2022-08-19T19:23:18.015Z,9.40
2022-08-19T19:25:50.899Z,9.13
2022-08-19T19:28:27.703Z,8.18
2022-08-19T19:30:59.076Z,5.35
2022-08-19T19:33:27.951Z,3.05
2022-08-19T19:35:56.234Z,2.25
2022-08-19T19:38:24.494Z,6.65
2022-08-19T19:40:52.417Z,3.83
2022-08-19T19:43:20.470Z,3.65
2022-08-19T19:45:49.883Z,3.53
2022-08-19T19:48:18.990Z,3.45
2022-08-19T19:50:48.867Z,6.05
2022-08-19T19:53:24.106Z,2.30
2022-08-19T19:55:54.933Z,3.00
2022-08-19T19:58:28.786Z,2.15
2022-08-19T20:00:57.067Z,5.80
2022-08-19T20:03:26.414Z,3.25
2022-08-19T20:05:54.908Z,3.00
2022-08-19T20:08:40.424Z,3.83
2022-08-19T20:11:08.854Z,3.78
2022-08-19T20:13:40.550Z,5.25
2022-08-19T20:16:08.738Z,4.60
2022-08-19T20:18:38.888Z,4.72
2022-08-19T20:21:07.178Z,2.70
2022-08-19T20:23:35.443Z,2.42
2022-08-19T20:26:06.467Z,2.80
2022-08-19T20:28:47.900Z,3.45
2022-08-19T20:31:26.361Z,3.85
2022-08-19T20:33:59.433Z,3.15
2022-08-19T20:36:27.524Z,2.85
2022-08-19T20:38:55.290Z,4.00
2022-08-19T20:41:23.819Z,2.42
2022-08-19T20:43:51.746Z,2.50
2022-08-19T20:46:19.905Z,2.00
2022-08-19T20:48:47.695Z,3.05
2022-08-19T20:51:17.182Z,2.60
2022-08-19T20:53:45.026Z,6.95
2022-08-19T20:56:13.051Z,3.67
2022-08-19T20:58:42.176Z,4.05
2022-08-19T21:01:10.926Z,4.50
2022-08-19T21:03:43.243Z,3.55
2022-08-19T21:06:12.697Z,5.38
2022-08-19T21:08:43.223Z,4.55
2022-08-19T21:11:13.775Z,2.55
2022-08-19T21:16:16.520Z,2.50
2022-08-19T21:18:44.354Z,2.53
2022-08-19T21:21:12.103Z,2.97
2022-08-19T21:23:40.162Z,2.42
2022-08-19T21:26:09.618Z,2.45
2022-08-19T21:28:37.349Z,2.45
2022-08-19T21:31:07.332Z,2.78
2022-08-19T21:33:35.652Z,3.60
2022-08-19T21:36:04.672Z,5.00
2022-08-19T21:38:33.029Z,3.42
2022-08-19T21:41:04.180Z,3.75
2022-08-19T21:43:36.132Z,4.70
2022-08-19T21:46:04.461Z,3.20
2022-08-19T21:48:32.853Z,2.42
2022-08-19T21:51:00.928Z,5.47
2022-08-19T21:53:34.046Z,3.55
2022-08-19T21:56:03.083Z,3.42
2022-08-19T21:58:31.086Z,5.22
2022-08-19T22:01:01.520Z,5.32
2022-08-19T22:03:30.214Z,3.47
2022-08-19T22:05:58.603Z,3.20
2022-08-19T22:08:27.203Z,3.65
2022-08-19T22:10:55.992Z,5.05
2022-08-19T22:13:24.894Z,3.42
2022-08-19T22:15:55.034Z,3.63
2022-08-19T22:18:24.475Z,4.13
2022-08-19T22:20:52.274Z,6.05
2022-08-19T22:23:20.441Z,4.90
2022-08-19T22:25:48.516Z,6.95
2022-08-19T22:28:27.913Z,4.68
2022-08-19T22:30:56.588Z,3.47
2022-08-19T22:33:27.702Z,4.10
2022-08-19T22:35:55.722Z,4.90
2022-08-19T22:38:25.255Z,9.00
2022-08-19T22:40:56.456Z,4.15
2022-08-19T22:43:27.282Z,5.75
2022-08-19T22:45:57.188Z,4.50
2022-08-19T22:48:29.959Z,5.15
2022-08-19T22:51:15.813Z,8.15
2022-08-19T22:53:45.863Z,6.95
2022-08-19T22:56:15.594Z,5.25
2022-08-19T22:58:43.667Z,4.53
2022-08-19T23:01:13.016Z,5.50
2022-08-19T23:03:52.281Z,4.65
2022-08-19T23:06:20.338Z,4.40
2022-08-19T23:08:48.126Z,5.07
2022-08-19T23:11:16.290Z,5.00
2022-08-19T23:13:44.407Z,5.60
2022-08-19T23:16:12.165Z,6.90
2022-08-19T23:18:40.713Z,5.78
2022-08-19T23:21:09.863Z,4.70
2022-08-19T23:23:39.379Z,7.15
2022-08-19T23:26:11.714Z,5.57
2022-08-19T23:28:57.413Z,7.95
2022-08-19T23:31:27.056Z,7.88
2022-08-19T23:33:54.811Z,7.07
2022-08-19T23:36:25.054Z,7.57
2022-08-19T23:38:53.021Z,7.00
2022-08-19T23:41:23.859Z,8.10
2022-08-19T23:43:54.977Z,7.13
2022-08-19T23:46:28.408Z,8.57
2022-08-19T23:48:56.665Z,5.68
2022-08-19T23:51:26.741Z,7.47
2022-08-19T23:53:54.613Z,6.00
2022-08-19T23:56:22.509Z,7.70
2022-08-19T23:58:50.576Z,6.88
